Time;durP1;ratioP1;P1;durP2;ratioP2;P2;SDS_P1;SDS_P2;PMS_P1;PMS_P2;Temp;Humidity;BMP_temperature;BMP_pressure;BME280_temperature;BME280_humidity;BME280_pressure;Samples;Min_cycle;Max_cycle;Signal;HPM_P1;HPM_P2
2022/05/02 00:02:04;;;;;;;8.02;7.22;;;;;;;9.69;70.40;102297.59;5040851;28;20332;-79
2022/05/02 00:04:29;;;;;;;8.48;6.70;;;;;;;9.68;70.37;102298.50;5057954;28;20079;-79
2022/05/02 00:06:54;;;;;;;7.78;7.03;;;;;;;9.65;70.25;102303.75;5058325;28;20248;-79
2022/05/02 00:09:20;;;;;;;8.35;7.05;;;;;;;9.65;70.26;102300.28;5023463;28;20033;-79
2022/05/02 00:11:45;;;;;;;6.97;6.40;;;;;;;9.62;70.15;102303.78;5007400;28;20071;-79
2022/05/02 00:14:11;;;;;;;7.85;7.05;;;;;;;9.61;70.35;102302.94;5023659;28;20032;-79
2022/05/02 00:16:36;;;;;;;7.78;7.05;;;;;;;9.59;70.32;102302.09;5057598;28;20041;-79
2022/05/02 00:19:02;;;;;;;7.47;6.78;;;;;;;9.57;70.16;102298.63;5058035;28;20032;-79
2022/05/02 00:21:28;;;;;;;8.50;6.53;;;;;;;9.56;70.33;102298.66;5057794;28;20110;-79
2022/05/02 00:23:53;;;;;;;7.40;6.70;;;;;;;9.55;70.39;102302.13;5039524;28;20372;-79
2022/05/02 00:26:19;;;;;;;7.15;6.45;;;;;;;9.53;70.46;102293.44;5040088;28;20040;-79
2022/05/02 00:28:44;;;;;;;7.70;7.00;;;;;;;9.51;70.55;102287.38;5058083;28;20058;-78
2022/05/02 00:31:10;;;;;;;7.63;6.93;;;;;;;9.49;70.50;102289.16;5040316;28;20152;-79
2022/05/02 00:33:35;;;;;;;6.85;6.25;;;;;;;9.48;70.66;102284.78;5039618;28;20095;-78
2022/05/02 00:36:00;;;;;;;9.65;6.72;;;;;;;9.47;70.51;102289.16;5039880;28;20037;-79
2022/05/02 00:38:26;;;;;;;7.78;6.85;;;;;;;9.46;70.49;102281.34;5007086;28;20372;-79
2022/05/02 00:40:52;;;;;;;9.60;6.72;;;;;;;9.44;70.55;102284.00;5023361;28;20037;-79
2022/05/02 00:43:17;;;;;;;7.10;6.30;;;;;;;9.44;70.61;102283.09;5039018;28;20035;-79
2022/05/02 00:45:43;;;;;;;6.47;5.88;;;;;;;9.41;70.54;102271.81;5057577;28;20332;-78
2022/05/02 00:48:08;;;;;;;7.15;6.55;;;;;;;9.40;70.71;102277.94;5040224;28;20039;-79
2022/05/02 00:50:40;;;;;;;7.38;6.40;;;;;;;9.38;70.63;102279.69;5038893;28;20053;-79
2022/05/02 00:53:08;;;;;;;6.60;6.00;;;;;;;9.37;70.76;102272.75;5039939;28;20100;-79
2022/05/02 00:55:35;;;;;;;7.40;6.18;;;;;;;9.37;70.55;102271.88;5039373;28;20025;-79
2022/05/02 00:58:01;;;;;;;6.95;6.15;;;;;;;9.35;70.79;102274.50;5039692;28;20021;-78
2022/05/02 01:00:29;;;;;;;6.88;6.18;;;;;;;9.33;70.80;102268.44;5057245;28;20222;-79
2022/05/02 01:02:55;;;;;;;7.13;6.53;;;;;;;9.33;70.81;102270.16;5039864;28;20100;-79
2022/05/02 01:05:21;;;;;;;6.72;5.88;;;;;;;9.31;70.68;102264.09;5039419;28;20033;-79
2022/05/02 01:07:46;;;;;;;6.95;6.22;;;;;;;9.29;70.79;102263.25;5039684;28;20276;-78
2022/05/02 01:10:16;;;;;;;6.78;6.18;;;;;;;9.27;70.73;102262.41;5039560;28;20079;-78
2022/05/02 01:12:46;;;;;;;6.88;6.28;;;;;;;9.25;70.59;102262.44;5040171;28;20317;-79
2022/05/02 01:15:12;;;;;;;6.53;5.97;;;;;;;9.23;70.72;102259.81;5040264;28;20032;-79
2022/05/02 01:17:38;;;;;;;7.20;6.47;;;;;;;9.21;70.39;102272.06;5039447;28;20029;-79
2022/05/02 01:20:11;;;;;;;6.50;5.90;;;;;;;9.20;70.84;102261.63;5057203;28;20029;-79
2022/05/02 01:22:36;;;;;;;7.00;6.30;;;;;;;9.17;70.66;102259.91;5057158;28;20041;-79
2022/05/02 01:25:02;;;;;;;6.45;5.85;;;;;;;9.16;70.65;102265.16;5057233;28;20128;-79
2022/05/02 01:27:28;;;;;;;7.22;6.53;;;;;;;9.14;70.76;102259.09;5056595;28;20090;-79
2022/05/02 01:29:53;;;;;;;6.15;5.65;;;;;;;9.13;70.82;102262.56;5039194;28;20049;-79
2022/05/02 01:32:19;;;;;;;6.55;6.05;;;;;;;9.11;70.79;102253.88;5056943;28;20036;-79
2022/05/02 01:34:44;;;;;;;8.15;6.28;;;;;;;9.09;70.92;102258.28;5024414;28;20087;-79
2022/05/02 01:37:11;;;;;;;6.93;6.15;;;;;;;9.08;70.86;102254.81;5043613;28;20091;-79
2022/05/02 01:39:37;;;;;;;6.60;6.00;;;;;;;9.06;71.08;102259.19;5060846;28;20273;-79
2022/05/02 01:42:05;;;;;;;7.63;6.25;;;;;;;9.06;71.24;102253.06;5043205;28;20041;-79
2022/05/02 01:44:32;;;;;;;7.00;6.10;;;;;;;9.03;71.19;102252.22;5042553;28;20056;-79
2022/05/02 01:46:58;;;;;;;7.03;6.07;;;;;;;9.02;71.10;102247.00;5043242;28;20070;-79
2022/05/02 01:49:23;;;;;;;8.50;6.72;;;;;;;9.01;71.01;102240.94;5060510;28;20255;-79
2022/05/02 01:51:49;;;;;;;8.20;6.10;;;;;;;8.99;71.09;102253.16;5060953;28;20328;-79
2022/05/02 01:54:15;;;;;;;7.20;6.50;;;;;;;8.98;71.15;102243.56;5026248;28;20040;-79
2022/05/02 01:56:40;;;;;;;6.75;5.95;;;;;;;8.97;71.30;102252.31;5043021;28;20199;-79
2022/05/02 01:59:06;;;;;;;6.43;5.82;;;;;;;8.95;71.31;102241.00;5060760;28;20048;-79
2022/05/02 02:01:32;;;;;;;6.65;6.10;;;;;;;8.94;71.38;102251.47;5060324;28;20404;-79
2022/05/02 02:05:48;;;;;;;6.95;6.25;;;;;;;8.92;71.42;102251.50;5026336;28;20048;-79
2022/05/02 02:06:47;;;;;;;6.85;6.25;;;;;;;8.90;71.33;102248.03;5060453;28;20068;-79
2022/05/02 02:09:13;;;;;;;6.97;6.18;;;;;;;8.89;71.48;102237.59;5060259;28;20041;-79
2022/05/02 02:11:38;;;;;;;6.45;5.82;;;;;;;8.87;71.33;102247.19;5060466;28;20103;-79
2022/05/02 02:14:04;;;;;;;7.15;6.07;;;;;;;8.86;71.32;102237.63;5042761;28;20385;-79
2022/05/02 02:16:29;;;;;;;6.70;6.10;;;;;;;8.83;71.48;102241.16;5059984;28;20063;-79
2022/05/02 02:18:54;;;;;;;6.95;6.35;;;;;;;8.81;71.44;102238.53;5026268;28;20048;-79
2022/05/02 02:21:20;;;;;;;6.75;6.15;;;;;;;8.80;71.40;102242.06;5025373;28;20037;-79
2022/05/02 02:23:45;;;;;;;6.20;5.70;;;;;;;8.78;71.49;102235.09;5042460;28;20062;-79
2022/05/02 02:26:11;;;;;;;7.32;6.63;;;;;;;8.76;71.44;102239.47;5060195;28;20040;-79
2022/05/02 02:28:38;;;;;;;6.43;5.82;;;;;;;8.75;71.30;102237.75;5042018;28;20106;-79
2022/05/02 02:31:04;;;;;;;6.50;6.00;;;;;;;8.73;71.42;102242.13;5042147;28;20024;-79
2022/05/02 02:33:29;;;;;;;6.30;5.70;;;;;;;8.71;71.38;102239.50;5059616;28;20035;-79
2022/05/02 02:35:55;;;;;;;6.93;6.30;;;;;;;8.68;71.27;102236.97;5042273;28;20033;-79
2022/05/02 02:38:20;;;;;;;6.40;5.82;;;;;;;8.68;71.54;102236.97;5041903;28;20056;-79
2022/05/02 02:40:46;;;;;;;6.30;5.80;;;;;;;8.65;71.59;102237.84;5060189;28;20033;-79
2022/05/02 02:43:11;;;;;;;7.07;6.38;;;;;;;8.63;71.37;102238.75;5041904;28;20017;-79
2022/05/02 02:45:37;;;;;;;6.55;5.95;;;;;;;8.61;71.31;102237.91;5024981;28;20060;-79
2022/05/02 02:48:03;;;;;;;6.85;6.20;;;;;;;8.60;71.55;102238.75;5041986;28;20078;-79
2022/05/02 02:50:28;;;;;;;6.78;6.18;;;;;;;8.57;71.53;102231.84;5024834;28;20448;-79
2022/05/02 02:52:54;;;;;;;6.97;6.38;;;;;;;8.56;71.37;102231.84;5025150;28;20040;-79
2022/05/02 02:55:19;;;;;;;6.35;5.85;;;;;;;8.53;71.54;102229.25;5059174;28;20108;-79
2022/05/02 02:57:44;;;;;;;6.88;6.18;;;;;;;8.51;71.37;102225.81;5041944;28;20106;-79
2022/05/02 03:00:10;;;;;;;6.90;6.22;;;;;;;8.50;71.33;102230.16;5059938;28;20052;-79
2022/05/02 03:02:37;;;;;;;6.20;5.68;;;;;;;8.48;71.43;102221.50;5024587;28;20037;-79
2022/05/02 03:07:47;;;;;;;7.15;6.45;;;;;;;8.44;71.48;102225.88;5044119;28;20047;-79
2022/05/02 03:10:12;;;;;;;6.70;6.10;;;;;;;8.41;71.43;102225.88;5059728;28;20032;-79
2022/05/02 03:12:38;;;;;;;6.50;5.85;;;;;;;8.40;71.54;102223.25;5041766;28;20037;-79
2022/05/02 03:15:04;;;;;;;6.88;6.15;;;;;;;8.38;71.52;102222.41;5041378;28;20240;-79
2022/05/02 03:17:30;;;;;;;6.40;5.90;;;;;;;8.37;71.62;102218.09;5041227;28;20394;-79
2022/05/02 03:19:55;;;;;;;6.68;5.88;;;;;;;8.34;71.46;102221.56;5025100;28;20028;-79
2022/05/02 03:22:21;;;;;;;7.13;6.53;;;;;;;8.33;71.59;102211.16;5041096;28;20060;-79
2022/05/02 03:24:46;;;;;;;6.55;5.95;;;;;;;8.32;71.38;102217.25;5041325;28;20033;-79
2022/05/02 03:27:11;;;;;;;6.55;5.95;;;;;;;8.30;71.32;102217.28;5041252;28;20032;-79
2022/05/02 03:29:37;;;;;;;6.65;5.95;;;;;;;8.29;71.59;102214.66;5008322;28;20073;-79
2022/05/02 03:32:03;;;;;;;6.65;6.05;;;;;;;8.27;71.46;102225.97;5041381;28;20021;-79
2022/05/02 03:34:28;;;;;;;7.45;6.85;;;;;;;8.26;71.56;102215.59;5058547;28;20110;-79
2022/05/02 03:36:54;;;;;;;6.93;6.35;;;;;;;8.23;71.54;102218.19;5041231;28;20029;-79
2022/05/02 03:39:20;;;;;;;6.95;6.25;;;;;;;8.21;71.63;102207.78;5059137;28;20041;-79
2022/05/02 03:41:45;;;;;;;7.55;6.57;;;;;;;8.20;71.52;102219.06;5024539;28;20029;-79
2022/05/02 03:44:10;;;;;;;8.07;6.53;;;;;;;8.19;71.71;102208.69;5040993;28;20044;-79
2022/05/02 03:46:36;;;;;;;7.03;6.43;;;;;;;8.17;71.52;102211.31;5040538;28;20029;-79
2022/05/02 03:49:01;;;;;;;7.65;6.85;;;;;;;8.16;71.76;102206.94;5024437;28;20396;-79
2022/05/02 03:51:27;;;;;;;7.22;6.57;;;;;;;8.16;71.66;102214.78;5036768;28;20065;-79
2022/05/02 03:53:52;;;;;;;7.70;7.00;;;;;;;8.14;71.69;102215.69;5037764;28;20090;-79
2022/05/02 03:56:18;;;;;;;8.00;7.00;;;;;;;8.14;71.58;102211.31;5036868;28;20302;-79
2022/05/02 03:58:43;;;;;;;7.55;6.85;;;;;;;8.13;71.80;102217.44;5018572;28;20037;-79
2022/05/02 04:01:09;;;;;;;6.97;6.38;;;;;;;8.12;71.72;102207.84;5036630;28;20037;-79
2022/05/02 04:03:34;;;;;;;7.53;6.72;;;;;;;8.12;71.69;102209.63;5035023;28;20262;-79
2022/05/02 04:06:00;;;;;;;7.20;6.45;;;;;;;8.11;71.83;102216.56;5036983;28;20037;-79
2022/05/02 04:08:25;;;;;;;7.60;6.75;;;;;;;8.09;71.88;102215.69;5036303;28;20051;-79
2022/05/02 04:10:51;;;;;;;8.07;7.05;;;;;;;8.07;71.91;102210.50;5035545;28;20248;-79
2022/05/02 04:13:16;;;;;;;7.75;6.65;;;;;;;8.06;71.94;102210.53;5034978;28;20268;-79
2022/05/02 04:15:42;;;;;;;7.15;6.50;;;;;;;8.05;71.98;102212.25;5036522;28;20112;-79
2022/05/02 04:18:08;;;;;;;7.47;6.72;;;;;;;8.05;71.84;102211.41;5035141;28;20311;-79
2022/05/02 04:20:33;;;;;;;8.13;7.00;;;;;;;8.04;72.02;102222.69;5036041;28;20025;-79
2022/05/02 04:22:59;;;;;;;9.05;6.95;;;;;;;8.03;72.09;102213.16;5035411;28;20064;-79
2022/05/02 04:25:24;;;;;;;8.50;7.07;;;;;;;8.02;72.13;102216.63;5034211;28;20056;-79
2022/05/02 04:27:50;;;;;;;7.53;6.82;;;;;;;8.02;72.05;102227.06;5052091;28;20037;-79
2022/05/02 04:30:16;;;;;;;7.90;7.10;;;;;;;8.00;72.13;102221.00;5034586;28;20045;-79
2022/05/02 04:32:42;;;;;;;8.30;7.28;;;;;;;7.99;72.19;102222.75;5036443;28;20063;-79
2022/05/02 04:35:10;;;;;;;7.85;7.10;;;;;;;8.00;72.33;102226.22;5036277;28;20341;-79
2022/05/02 04:37:35;;;;;;;7.97;7.20;;;;;;;7.99;72.36;102219.28;5034208;28;20069;-79
2022/05/02 04:40:01;;;;;;;8.50;7.00;;;;;;;7.99;72.35;102227.09;5036300;28;20065;-79
2022/05/02 04:42:26;;;;;;;7.60;6.90;;;;;;;7.98;72.29;102220.16;5034425;28;20029;-79
2022/05/02 04:44:51;;;;;;;7.95;7.25;;;;;;;7.97;72.36;102229.72;5051531;28;20044;-78
2022/05/02 04:47:17;;;;;;;8.65;6.25;;;;;;;7.97;72.35;102226.25;5034600;28;20073;-78
2022/05/02 04:49:42;;;;;;;9.95;7.13;;;;;;;7.96;72.36;102229.72;5034599;28;20079;-78
2022/05/02 04:52:08;;;;;;;9.70;6.70;;;;;;;7.95;72.44;102228.88;5034448;28;20059;-78
2022/05/02 04:54:33;;;;;;;7.65;6.95;;;;;;;7.94;72.49;102221.91;5051260;28;20049;-78
2022/05/02 04:56:59;;;;;;;7.60;6.80;;;;;;;7.94;72.47;102228.88;5036092;28;20376;-79
2022/05/02 04:59:24;;;;;;;8.00;7.15;;;;;;;7.93;72.41;102230.63;5035873;28;20095;-79
2022/05/02 05:01:50;;;;;;;7.32;6.28;;;;;;;7.93;72.44;102225.41;5034218;28;20048;-79
2022/05/02 05:04:15;;;;;;;7.13;6.43;;;;;;;7.92;72.58;102228.03;5034731;28;20040;-79
2022/05/02 05:06:40;;;;;;;8.90;7.35;;;;;;;7.92;72.71;102226.28;5017982;28;20037;-79
2022/05/02 05:09:06;;;;;;;8.13;7.28;;;;;;;7.92;72.59;102235.84;5034968;28;20460;-79
2022/05/02 05:12:01;;;;;;;8.48;7.55;;;;;;;7.93;72.74;102237.56;5034136;28;20697;-79
2022/05/02 05:17:57;;;;;;;8.02;7.25;;;;;;;7.94;73.10;102228.88;5035530;28;20111;-79
2022/05/02 05:20:42;;;;;;;11.23;7.45;;;;;;;7.94;73.44;102237.56;5018148;28;20053;-79
2022/05/02 05:23:19;;;;;;;11.93;7.88;;;;;;;7.95;73.63;102231.47;5035777;28;20093;-79
2022/05/02 05:26:18;;;;;;;8.75;7.85;;;;;;;7.97;73.91;102239.31;5033978;28;20124;-79
2022/05/02 05:29:11;;;;;;;12.02;8.57;;;;;;;7.95;74.52;102230.59;5035938;28;20392;-79
2022/05/02 05:31:42;;;;;;;9.18;8.27;;;;;;;7.94;75.27;102232.34;5035386;28;20033;-79
2022/05/02 05:34:43;;;;;;;10.05;8.93;;;;;;;7.95;75.31;102238.41;5034256;28;20029;-79
2022/05/02 05:37:44;;;;;;;10.02;8.85;;;;;;;7.92;76.15;102231.50;5035338;28;20068;-79
2022/05/02 05:40:20;;;;;;;10.32;9.23;;;;;;;7.90;76.44;102238.47;5035415;28;20090;-79
2022/05/02 05:42:56;;;;;;;12.02;8.73;;;;;;;7.92;76.88;102238.47;5035584;28;20064;-79
2022/05/02 05:45:31;;;;;;;13.95;9.65;;;;;;;7.88;77.44;102230.66;5035158;28;20053;-79
2022/05/02 05:48:11;;;;;;;9.27;8.27;;;;;;;7.93;77.37;102237.56;5033974;28;20041;-79
2022/05/02 05:50:42;;;;;;;11.82;9.55;;;;;;;7.91;77.91;102242.78;5033421;28;20428;-79
2022/05/02 05:53:34;;;;;;;10.93;9.77;;;;;;;7.93;77.75;102234.97;5034029;28;20029;-79
2022/05/02 05:56:12;;;;;;;9.88;8.88;;;;;;;7.94;77.98;102239.31;5034523;28;20037;-79
2022/05/02 05:59:02;;;;;;;12.93;10.57;;;;;;;7.93;78.61;102238.47;5035230;28;20408;-79
2022/05/02 06:02:01;;;;;;;15.48;10.73;;;;;;;7.94;78.71;102240.19;5016888;28;20033;-79
2022/05/02 06:04:30;;;;;;;15.90;10.43;;;;;;;7.95;79.06;102241.03;5033470;28;20048;-79
2022/05/02 06:06:58;;;;;;;13.90;10.63;;;;;;;7.94;79.63;102241.94;5035505;28;20036;-79
2022/05/02 06:09:28;;;;;;;13.37;11.40;;;;;;;7.95;80.31;102241.03;5035393;28;20316;-79
2022/05/02 06:11:57;;;;;;;16.33;11.20;;;;;;;7.96;80.19;102235.81;5034852;28;20096;-79
2022/05/02 06:14:26;;;;;;;17.02;11.98;;;;;;;7.97;80.50;102247.13;5034575;28;20041;-79
2022/05/02 06:19:40;;;;;;;15.32;11.40;;;;;;;7.98;80.83;102236.66;5035136;28;20097;-79
2022/05/02 06:22:07;;;;;;;16.85;12.13;;;;;;;8.01;81.02;102241.00;5037444;28;20048;-79
2022/05/02 06:24:36;;;;;;;16.33;11.50;;;;;;;8.02;81.40;102242.72;5037945;28;20037;-79
2022/05/02 06:27:03;;;;;;;19.90;11.95;;;;;;;8.05;81.23;102240.94;5038695;28;20040;-79
2022/05/02 06:29:29;;;;;;;14.73;12.07;;;;;;;8.05;81.64;102246.16;5038319;28;20061;-79
2022/05/02 06:31:58;;;;;;;16.38;12.55;;;;;;;8.08;81.57;102245.31;5038290;28;20167;-79
2022/05/02 06:34:26;;;;;;;;;;;;;;;8.11;81.88;102245.25;5055550;28;20029;-79
2022/05/02 06:37:09;;;;;;;16.48;12.27;;;;;;;8.13;81.88;102242.63;5052135;28;20161;-79
2022/05/02 06:40:01;;;;;;;18.27;12.35;;;;;;;8.18;81.38;102236.50;5057204;28;20038;-79
2022/05/02 06:42:39;;;;;;;14.32;11.98;;;;;;;8.23;81.17;102241.69;5056946;28;20420;-79
2022/05/02 06:45:10;;;;;;;15.68;12.27;;;;;;;8.27;81.13;102243.41;5058237;28;20074;-80
2022/05/02 06:47:41;;;;;;;19.63;12.52;;;;;;;8.32;80.86;102239.00;5056306;28;20040;-79
2022/05/02 06:50:07;;;;;;;14.82;12.25;;;;;;;8.34;80.65;102245.06;5055071;28;20533;-79
2022/05/02 06:53:02;;;;;;;15.07;12.48;;;;;;;8.39;80.25;102245.03;5057496;28;20079;-79
2022/05/02 06:56:09;;;;;;;17.10;12.50;;;;;;;8.44;80.37;102246.75;5071220;28;20055;-79
2022/05/02 06:59:01;;;;;;;15.82;11.80;;;;;;;8.51;80.00;102246.69;5059375;28;20271;-79
2022/05/02 07:01:47;;;;;;;21.05;12.52;;;;;;;8.57;79.74;102244.03;5076720;28;20060;-79
2022/05/02 07:04:25;;;;;;;16.45;12.10;;;;;;;8.60;79.47;102242.28;5047597;28;20029;-79
2022/05/02 07:07:12;;;;;;;16.48;12.98;;;;;;;8.68;79.38;102238.69;5059378;28;20094;-79
2022/05/02 07:09:44;;;;;;;15.55;12.48;;;;;;;8.73;79.23;102236.88;5077393;28;20405;-79
2022/05/02 07:12:11;;;;;;;12.55;11.25;;;;;;;8.77;79.07;102241.22;5049503;28;20375;-79
2022/05/02 07:15:03;;;;;;;21.45;13.63;;;;;;;8.81;78.26;102235.06;5076058;28;20021;-79
2022/05/02 07:17:36;;;;;;;15.82;11.70;;;;;;;8.86;77.73;102233.28;5052284;28;20352;-79
2022/05/02 07:20:05;;;;;;;15.27;11.75;;;;;;;8.91;77.47;102241.91;5058984;28;20024;-79
2022/05/02 07:22:42;;;;;;;18.02;12.38;;;;;;;8.93;77.41;102228.84;5075404;28;20438;-79
2022/05/02 07:25:13;;;;;;;16.73;12.43;;;;;;;8.99;77.24;102232.25;5077025;28;20037;-79
2022/05/02 07:27:57;;;;;;;17.55;13.02;;;;;;;9.06;76.87;102245.22;5077857;28;20028;-79
2022/05/02 07:30:24;;;;;;;16.10;11.88;;;;;;;9.09;76.41;102239.97;5075581;28;20028;-79
2022/05/02 07:32:53;;;;;;;15.15;12.07;;;;;;;9.14;76.21;102232.94;5057311;28;20052;-80
2022/05/02 07:35:21;;;;;;;18.20;12.25;;;;;;;9.16;75.26;102234.66;5077990;28;20041;-79
2022/05/02 07:37:47;;;;;;;17.58;12.02;;;;;;;9.22;74.96;102239.81;5060569;28;20343;-79
2022/05/02 07:40:16;;;;;;;14.88;12.15;;;;;;;9.29;74.56;102234.50;5059948;28;20067;-79
2022/05/02 07:42:42;;;;;;;;;;;;;;;9.33;74.37;102242.28;5061175;28;20031;-79
2022/05/02 07:45:10;;;;;;;13.27;10.45;;;;;;;9.39;72.88;102238.72;5078484;28;19920;-79
2022/05/02 07:47:36;;;;;;;17.00;11.93;;;;;;;9.46;72.65;102231.66;5054386;28;20232;-79
2022/05/02 07:50:05;;;;;;;19.00;12.43;;;;;;;9.48;72.42;102230.75;5060298;28;20429;-79
2022/05/02 07:52:40;;;;;;;13.10;10.45;;;;;;;9.55;71.30;102235.03;5043171;28;20075;-79
2022/05/02 07:55:07;;;;;;;16.60;10.90;;;;;;;9.58;71.23;102228.88;5070619;28;20012;-79
2022/05/02 07:57:37;;;;;;;17.65;10.77;;;;;;;9.63;71.14;102232.28;5043034;28;20036;-79
2022/05/02 08:00:06;;;;;;;13.90;10.68;;;;;;;9.70;71.30;102238.31;5078024;28;20063;-79
2022/05/02 08:02:32;;;;;;;15.70;10.80;;;;;;;9.73;70.01;102231.28;5077540;28;20448;-79
2022/05/02 08:04:57;;;;;;;19.92;11.43;;;;;;;9.81;69.12;102236.38;5043518;28;20095;-79
2022/05/02 08:07:38;;;;;;;13.38;10.68;;;;;;;9.89;68.22;102241.50;5059250;28;20324;-79
2022/05/02 08:10:10;;;;;;;13.02;10.65;;;;;;;9.93;67.87;102235.31;5059941;28;20205;-79
2022/05/02 08:13:02;;;;;;;13.65;10.25;;;;;;;9.99;67.58;102243.09;5059500;28;20028;-79
2022/05/02 08:15:36;;;;;;;12.98;9.80;;;;;;;10.00;67.76;102234.34;5047761;28;20032;-79
2022/05/02 08:18:31;;;;;;;12.38;9.60;;;;;;;10.04;68.33;102232.53;5060155;28;20017;-79
2022/05/02 08:21:13;;;;;;;14.98;11.30;;;;;;;10.13;67.74;102233.28;5059942;28;20036;-79
2022/05/02 08:29:46;;;;;;;18.00;10.82;;;;;;;10.33;66.89;102239.94;5072939;28;20111;-79
2022/05/02 08:32:22;;;;;;;21.30;10.50;;;;;;;10.43;66.43;102244.13;5058376;28;20089;-79
2022/05/02 08:35:01;;;;;;;13.10;9.57;;;;;;;10.49;65.80;102236.16;5057997;28;20232;-79
2022/05/02 08:37:48;;;;;;;18.10;9.73;;;;;;;10.53;64.92;102237.84;5057710;28;20082;-79
2022/05/02 08:40:25;;;;;;;11.95;9.05;;;;;;;10.57;64.54;102238.66;5067722;28;20292;-79
2022/05/02 08:43:05;;;;;;;11.60;8.45;;;;;;;10.62;64.13;102234.16;5071223;28;20036;-79
2022/05/02 08:46:07;;;;;;;8.82;7.93;;;;;;;10.70;63.28;102241.91;5075210;28;20051;-79
2022/05/02 08:52:04;;;;;;;;;;;;;;;10.75;63.11;102230.44;5069389;28;20183;-79
2022/05/02 08:54:49;;;;;;;10.52;8.48;;;;;;;10.79;63.00;102235.59;5074627;28;20200;-79
2022/05/02 08:57:26;;;;;;;10.73;8.23;;;;;;;10.85;63.28;102238.13;5057049;28;20155;-79
2022/05/02 09:00:07;;;;;;;11.63;8.48;;;;;;;10.85;63.09;102223.25;5075627;28;20044;-79
2022/05/02 09:03:22;;;;;;;12.00;8.32;;;;;;;10.93;62.33;102229.22;5075015;28;20032;-79
2022/05/02 09:06:03;;;;;;;9.13;7.10;;;;;;;10.98;62.54;102231.75;5075312;28;20047;-79
2022/05/02 09:09:04;;;;;;;9.25;7.45;;;;;;;11.06;61.73;102229.84;5075039;28;20066;-79
2022/05/02 09:11:37;;;;;;;9.73;8.15;;;;;;;11.15;61.76;102228.75;4964459;28;20043;-79
2022/05/02 09:14:40;;;;;;;8.95;7.00;;;;;;;11.22;61.26;102230.34;5050720;28;20360;-79
2022/05/02 09:17:21;;;;;;;8.48;7.28;;;;;;;11.25;59.82;102225.06;5057198;28;20029;-79
2022/05/02 09:20:22;;;;;;;8.57;7.10;;;;;;;11.33;60.51;102224.88;5057632;28;20366;-79
2022/05/02 09:23:42;;;;;;;9.55;7.38;;;;;;;11.39;60.40;102221.25;5012587;28;20041;-79
2022/05/02 09:26:16;;;;;;;9.00;7.07;;;;;;;11.49;59.79;102215.78;5040621;28;20040;-79
2022/05/02 09:29:02;;;;;;;8.23;6.60;;;;;;;11.52;59.32;102215.72;5056288;28;20040;-79
2022/05/02 09:31:58;;;;;;;11.00;7.38;;;;;;;11.54;59.93;102213.06;5056556;28;20039;-79
2022/05/02 09:34:45;;;;;;;7.68;6.88;;;;;;;11.57;59.15;102213.00;5049365;28;20228;-79
2022/05/02 09:37:20;;;;;;;7.15;6.45;;;;;;;11.58;59.53;102212.09;5064077;28;20070;-79
2022/05/02 09:39:47;;;;;;;13.65;6.20;;;;;;;11.60;59.22;102201.56;5057035;28;20332;-79
2022/05/02 09:42:21;;;;;;;9.23;6.93;;;;;;;11.69;59.08;102210.06;5074895;28;20035;-79
2022/05/02 09:49:33;;;;;;;7.55;6.80;;;;;;;11.89;58.76;102204.34;5074968;28;20059;-79
2022/05/02 09:51:21;;;;;;;8.95;6.47;;;;;;;12.00;58.07;102208.50;5074274;28;20364;-79
2022/05/02 09:54:03;;;;;;;8.40;6.65;;;;;;;12.04;58.19;102202.28;5075054;28;20028;-79
2022/05/02 09:56:41;;;;;;;9.02;6.28;;;;;;;12.10;57.66;102204.78;5057809;28;20099;-79
2022/05/02 09:59:07;;;;;;;7.05;6.20;;;;;;;12.21;57.46;102200.09;5060723;28;20279;-79
2022/05/02 10:01:33;;;;;;;6.72;5.95;;;;;;;12.23;57.16;102202.69;5060393;28;20054;-79
2022/05/02 10:04:01;;;;;;;7.22;6.25;;;;;;;12.31;57.17;102205.97;5078590;28;20060;-79
2022/05/02 10:06:35;;;;;;;6.50;5.90;;;;;;;12.33;56.60;102204.16;5078163;28;20036;-79
2022/05/02 10:09:11;;;;;;;6.45;5.55;;;;;;;12.40;56.59;102199.63;5078214;28;20037;-79
2022/05/02 10:12:02;;;;;;;6.50;5.90;;;;;;;12.46;56.46;102202.06;5078273;28;20040;-79
2022/05/02 10:15:09;;;;;;;7.43;5.97;;;;;;;12.50;55.84;102201.09;5049310;28;20031;-79
2022/05/02 10:18:00;;;;;;;8.55;6.20;;;;;;;12.54;56.65;102196.63;5050224;28;20252;-79
2022/05/02 10:20:34;;;;;;;6.88;5.75;;;;;;;12.58;55.30;102193.84;5078443;28;20327;-79
2022/05/02 10:23:27;;;;;;;8.68;6.30;;;;;;;12.70;55.30;102195.28;5078489;28;20028;-79
2022/05/02 10:26:28;;;;;;;6.45;5.72;;;;;;;12.72;55.46;102182.97;5049389;28;20363;-79
2022/05/02 10:28:56;;;;;;;6.72;6.00;;;;;;;12.75;55.80;102196.03;5016773;28;20332;-79
2022/05/02 10:31:27;;;;;;;8.15;6.25;;;;;;;12.77;55.79;102188.97;5059723;28;20036;-79
2022/05/02 10:33:54;;;;;;;6.82;6.18;;;;;;;12.87;55.15;102185.16;5059488;28;20048;-79
2022/05/02 10:36:23;;;;;;;6.65;5.65;;;;;;;12.90;55.57;102186.84;5059283;28;20032;-79
2022/05/02 10:39:01;;;;;;;7.63;6.93;;;;;;;12.98;54.85;102178.72;5067359;28;20100;-79
2022/05/02 10:41:29;;;;;;;6.63;5.93;;;;;;;13.01;54.73;102178.63;5060875;28;20091;-79
2022/05/02 10:44:03;;;;;;;8.50;6.10;;;;;;;13.12;54.46;102178.31;5079699;28;20020;-79
2022/05/02 10:46:31;;;;;;;8.38;6.40;;;;;;;13.13;53.95;102180.88;5061199;28;20028;-79
2022/05/02 10:49:21;;;;;;;10.60;7.10;;;;;;;13.14;53.39;102177.34;5061892;28;20095;-79
2022/05/02 10:52:03;;;;;;;7.00;6.40;;;;;;;13.12;54.39;102176.53;5079406;28;20236;-79
2022/05/02 10:54:45;;;;;;;8.25;6.80;;;;;;;13.12;54.26;102173.06;5078725;28;20091;-79
2022/05/02 10:57:20;;;;;;;7.60;6.53;;;;;;;13.10;53.98;102175.75;5079670;28;20087;-79
2022/05/02 10:59:51;;;;;;;7.28;6.57;;;;;;;13.12;53.74;102178.31;5078160;28;20073;-79
2022/05/02 11:02:32;;;;;;;7.43;6.63;;;;;;;13.12;54.20;102165.19;5077610;28;20030;-79
2022/05/02 11:05:24;;;;;;;8.45;7.57;;;;;;;13.16;54.99;102162.38;5070098;28;20072;-79
2022/05/02 11:08:11;;;;;;;8.05;6.78;;;;;;;13.21;54.93;102164.91;5059302;28;20099;-79
2022/05/02 11:10:47;;;;;;;6.85;6.22;;;;;;;13.28;54.49;102169.06;5060867;28;20028;-79
2022/05/02 11:13:44;;;;;;;8.30;6.28;;;;;;;13.38;54.05;102159.13;5061322;28;20040;-79
2022/05/02 11:16:27;;;;;;;8.88;6.90;;;;;;;13.44;53.21;102161.56;5079207;28;20355;-79
2022/05/02 11:22:14;;;;;;;8.48;6.72;;;;;;;13.52;53.98;102164.81;5029877;28;20048;-80
2022/05/02 11:24:47;;;;;;;7.93;7.13;;;;;;;13.51;53.45;102159.59;5078783;28;20029;-79
2022/05/02 11:27:25;;;;;;;10.18;7.82;;;;;;;13.51;52.98;102163.09;5061171;28;20077;-79
2022/05/02 11:30:02;;;;;;;7.53;6.30;;;;;;;13.53;53.38;102158.63;5075718;28;20539;-79
2022/05/02 11:33:06;;;;;;;7.80;7.00;;;;;;;13.58;52.96;102151.44;5076901;28;20155;-79
2022/05/02 11:35:34;;;;;;;8.23;7.50;;;;;;;13.61;52.55;102148.72;5036539;28;20036;-79
2022/05/02 11:38:26;;;;;;;8.25;7.03;;;;;;;13.66;51.91;102147.72;5076794;28;20038;-79
2022/05/02 11:40:58;;;;;;;7.90;7.05;;;;;;;13.63;52.98;102149.53;5062204;28;20048;-79
2022/05/02 11:43:24;;;;;;;8.48;6.72;;;;;;;13.62;52.77;102150.47;5058373;28;20024;-79
2022/05/02 11:46:15;;;;;;;7.75;6.60;;;;;;;13.66;52.37;102147.72;5042513;28;20041;-79
2022/05/02 11:49:18;;;;;;;8.73;6.70;;;;;;;13.67;52.49;102147.66;5072445;28;20032;-79
2022/05/02 11:51:46;;;;;;;7.72;6.93;;;;;;;13.69;52.10;102139.72;5076207;28;20047;-79
2022/05/02 11:54:32;;;;;;;7.97;7.13;;;;;;;13.78;52.60;102142.03;5076790;28;20091;-79
2022/05/02 11:57:04;;;;;;;8.90;7.63;;;;;;;13.83;51.46;102140.13;5058529;28;20044;-79
2022/05/02 11:59:42;;;;;;;8.00;7.20;;;;;;;13.86;53.11;102141.78;5076181;28;20239;-79
2022/05/02 12:02:29;;;;;;;10.60;8.20;;;;;;;13.98;51.37;102139.59;5076228;28;20402;-79
2022/05/02 12:04:57;;;;;;;9.18;7.50;;;;;;;13.99;51.80;102140.47;5071210;28;20040;-79
2022/05/02 12:07:29;;;;;;;8.57;7.57;;;;;;;13.99;51.40;102145.75;5075832;28;20037;-79
2022/05/02 12:10:14;;;;;;;7.57;6.93;;;;;;;13.97;55.17;102135.25;5076381;28;20036;-79
2022/05/02 12:12:48;;;;;;;9.00;7.00;;;;;;;13.96;51.73;102137.94;5074116;28;20086;-79
2022/05/02 12:15:14;;;;;;;11.00;7.20;;;;;;;13.98;51.79;102136.97;5052761;28;20328;-79
2022/05/02 12:18:00;;;;;;;8.70;7.30;;;;;;;14.01;51.57;102133.38;5057356;28;20132;-79
2022/05/02 12:20:36;;;;;;;12.25;7.70;;;;;;;14.08;50.84;102134.00;5054814;28;20134;-79